DAUG

Details ICAO DAUG (GHA)
Name NOUMERAT
Region Algeria
Timezone Africa/Algiers (UTC+1.0)
Plans Departing 20
Arriving 31
Stats Elevation 1,512 ft / 461 m (AMSL)
Location 32.385303° 3.801811°
Runways 2
Magnetic Variation 1.018° E
Sunrise 2017-12-11 06:37:34 UTC / 2017-12-11 07:37:34 Local
Sunset 2017-12-11 16:41:26 UTC / 2017-12-11 17:41:26 Local
Advertisement - Login to hide

Runways

ID Width Length Bearing (true) Bearing (mag) Surface Threshold Offset Overrun Length
12 197 ft / 60 m 10,148 ft / 3,093 m 122.57° 121.55° Asphalt 0 ft / 0 m 300 ft / 91 m
18 148 ft / 45 m 7,914 ft / 2,412 m 182.48° 181.46° Asphalt 0 ft / 0 m 0 ft / 0 m
30 197 ft / 60 m 10,148 ft / 3,093 m 302.58° 301.56° Asphalt 0 ft / 0 m 0 ft / 0 m
36 148 ft / 45 m 7,914 ft / 2,412 m 2.48° 1.46° Asphalt 0 ft / 0 m 0 ft / 0 m

Map

Weather


0- 5 10 15 20 25 30 35+ Temperature / ° C

Clouds and Precipitation
Forecast for 2017-12-11 06:00 UTC. Updated an hour ago

Ground ~20,000 ft ~40,000 ft Winds

METAR

DAUG 110200Z 25003KT CAVOK 10/04 Q1018

TAF

TAF DAUG 102300Z 1100/1124 VRB02KT 9999 FEW040 BECMG 1107/1110 24010KT PROB40 TEMPO 1110/1114 24015G25KT 5000 DRSA

Frequencies

Tower 118.90 MHz GHARDAIA TWR
Tower 119.70 MHz GHARDAIA TWR
Warning: Do not use this data for real-world aviation or navigation. No guarantee of current accuracy is given.